KJMS

Jamestown Regional Airport

Jamestown, North Dakota, USA
METAR KJMS 230804Z AUTO 33004KT 1 3/4SM -SN BR OVC027 M07/M08 A3013 RMK AO2 P0001 T10721083
Observed Flight Rules
Feb-23 @ 08:04 UTC (13 minutes ago) Instrument Flight Rules
Wind Visibility Clouds Conditions
330° at 4 knots 1 3/4 miles
  • Overcast at 2,700' AGL
  • Light Snow
  • Mist
Temperatures Readings Precipitation
Current -7°C / 19°F
Dewpoint -8°C / 18°F
Humidity 93%
Altimeter 30.13" Hg
Pressure 1020 hPa
Elevation 455
Current Rain 0.01
METAR KJMS 230804Z AUTO 33004KT 1 3/4SM -SN BR OVC027 M07/M08 A3013 RMK AO2 P0001 T10721083
Observed Flight Rules
Feb-23 @ 08:04 UTC
(13 minutes ago)
IFR
Wind Visibility
330° at 4 knots 1 3/4 miles
Clouds
  • Overcast at 2,700' AGL
Conditions
  • Light Snow
  • Mist
Temperature Dewpoint
-7°C / 19°F -8°C / 18°F
Humidity Altimeter Pressure
93% 30.13" Hg 1020 hPa
Current Rain
0.01